Terminal Aerodrome Forecast
Issued by NWS

Home | Current Version | Previous Version | Text Only | Print | Product List | Glossary On
Versions: 1 2 3 4 5 6 7 8 9 10 11
000
FTUS41 KBTV 231731
TAFPBG
TAF
KPBG 231731Z 2318/2418 02008KT P6SM BKN150
     FM240800 02004KT P6SM VCSH OVC050
     FM241100 15007KT P6SM -SHRA OVC050
     FM241300 14006KT 6SM SHRA BR OVC040=

USA.gov is the U.S. government's official web portal to all federal, state and local government web resources and services.